createdAt,value
2023-03-17T00:00:22.179Z,-2.14
2023-03-17T00:02:49.907Z,-2.14
2023-03-17T00:05:17.675Z,-2.14
2023-03-17T00:07:45.408Z,-2.19
2023-03-17T00:10:20.444Z,-2.22
2023-03-17T00:12:47.052Z,-2.20
2023-03-17T00:17:56.502Z,-2.25
2023-03-17T00:20:25.495Z,-2.28
2023-03-17T00:22:52.406Z,-2.29
2023-03-17T00:26:30.161Z,-2.29
2023-03-17T00:28:56.989Z,-2.31
2023-03-17T00:31:41.335Z,-2.33
2023-03-17T00:34:11.593Z,-2.31
2023-03-17T00:36:38.163Z,-2.35
2023-03-17T00:41:39.374Z,-2.46
2023-03-17T00:44:05.893Z,-2.49
2023-03-17T00:49:19.383Z,-2.51
2023-03-17T00:51:46.268Z,-2.54
2023-03-17T00:54:14.215Z,-2.58
2023-03-17T00:56:41.785Z,-2.56
2023-03-17T01:06:12.726Z,-2.58
2023-03-17T01:08:40.664Z,-2.62
2023-03-17T01:11:07.491Z,-2.66
2023-03-17T01:15:58.326Z,-2.68
2023-03-17T01:18:24.936Z,-2.64
2023-03-17T01:20:51.602Z,-2.64
2023-03-17T01:23:18.273Z,-2.65
2023-03-17T01:25:45.545Z,-2.68
2023-03-17T01:28:13.683Z,-2.74
2023-03-17T01:30:40.654Z,-2.79
2023-03-17T01:33:08.631Z,-2.81
2023-03-17T01:35:36.878Z,-2.80
2023-03-17T01:38:03.975Z,-2.82
2023-03-17T01:40:35.101Z,-2.82
2023-03-17T01:43:08.379Z,-2.81
2023-03-17T01:45:53.505Z,-2.88
2023-03-17T01:48:20.235Z,-2.89
2023-03-17T01:50:48.404Z,-2.90
2023-03-17T01:53:15.524Z,-2.94
2023-03-17T01:55:43.697Z,-2.91
2023-03-17T01:58:10.506Z,-2.93
2023-03-17T02:00:37.055Z,-2.94
2023-03-17T02:03:04.381Z,-2.96
2023-03-17T02:05:31.631Z,-2.99
2023-03-17T02:07:58.791Z,-2.99
2023-03-17T02:10:26.398Z,-3.05
2023-03-17T02:12:55.554Z,-3.07
2023-03-17T02:15:22.310Z,-3.04
2023-03-17T02:17:49.652Z,-3.02
2023-03-17T02:20:16.172Z,-3.02
2023-03-17T02:22:44.020Z,-3.06
2023-03-17T02:25:10.627Z,-3.03
2023-03-17T02:27:39.593Z,-3.07
2023-03-17T02:30:08.055Z,-3.08
2023-03-17T02:32:48.573Z,-3.07
2023-03-17T02:35:15.598Z,-3.07
2023-03-17T02:37:43.745Z,-3.09
2023-03-17T02:40:11.462Z,-3.08
2023-03-17T02:42:39.402Z,-3.07
2023-03-17T02:45:07.188Z,-3.07
2023-03-17T02:47:33.721Z,-3.06
2023-03-17T02:50:00.242Z,-3.06
2023-03-17T02:55:08.387Z,-3.06
2023-03-17T02:57:34.940Z,-3.08
2023-03-17T03:00:01.565Z,-3.10
2023-03-17T03:02:28.102Z,-3.10
2023-03-17T03:04:54.709Z,-3.10
2023-03-17T03:07:21.236Z,-3.11
2023-03-17T03:09:47.814Z,-3.13
2023-03-17T03:12:14.382Z,-3.15
2023-03-17T03:14:41.089Z,-3.18
2023-03-17T03:17:07.653Z,-3.17
2023-03-17T03:19:34.166Z,-3.20
2023-03-17T03:22:00.868Z,-3.18
2023-03-17T03:24:28.043Z,-3.19
2023-03-17T03:26:54.565Z,-3.20
2023-03-17T03:29:21.169Z,-3.23
2023-03-17T03:31:48.809Z,-3.25
2023-03-17T03:34:15.467Z,-3.26
2023-03-17T03:36:42.258Z,-3.27
2023-03-17T03:39:09.798Z,-3.30
2023-03-17T03:41:36.540Z,-3.33
2023-03-17T03:44:03.062Z,-3.35
2023-03-17T03:46:29.681Z,-3.33
2023-03-17T03:48:56.295Z,-3.32
2023-03-17T03:51:22.829Z,-3.38
2023-03-17T03:54:03.281Z,-3.31
2023-03-17T03:56:29.864Z,-3.36
2023-03-17T03:58:57.242Z,-3.40
2023-03-17T04:01:24.672Z,-3.43
2023-03-17T04:03:51.398Z,-3.45
2023-03-17T04:06:17.983Z,-3.43
2023-03-17T04:08:44.556Z,-3.43
2023-03-17T04:11:11.350Z,-3.45
2023-03-17T04:13:38.877Z,-3.44
2023-03-17T04:16:05.607Z,-3.48
2023-03-17T04:19:23.781Z,-3.45
2023-03-17T04:21:52.838Z,-3.47
2023-03-17T04:24:20.286Z,-3.48
2023-03-17T04:26:46.886Z,-3.51
2023-03-17T04:30:34.770Z,-3.56
2023-03-17T04:33:01.435Z,-3.60
2023-03-17T04:35:28.068Z,-3.61
2023-03-17T04:37:54.640Z,-3.60
2023-03-17T04:40:21.256Z,-3.64
2023-03-17T04:45:26.635Z,-3.68
2023-03-17T04:47:53.130Z,-3.73
2023-03-17T04:50:19.728Z,-3.70
2023-03-17T04:52:46.397Z,-3.72
2023-03-17T04:55:12.960Z,-3.75
2023-03-17T04:57:39.540Z,-3.77
2023-03-17T05:00:07.287Z,-3.76
2023-03-17T05:02:33.917Z,-3.74
2023-03-17T05:05:00.499Z,-3.75
2023-03-17T05:07:27.032Z,-3.74
2023-03-17T05:09:53.571Z,-3.72
2023-03-17T05:12:20.154Z,-3.69
2023-03-17T05:14:47.238Z,-3.69
2023-03-17T05:17:14.038Z,-3.64
2023-03-17T05:19:40.833Z,-3.58
2023-03-17T05:22:07.403Z,-3.58
2023-03-17T05:24:33.924Z,-3.57
2023-03-17T05:27:00.476Z,-3.56
2023-03-17T05:29:27.040Z,-3.52
2023-03-17T05:31:54.005Z,-3.44
2023-03-17T05:34:20.526Z,-3.48
2023-03-17T05:36:47.054Z,-3.50
2023-03-17T05:41:52.793Z,-3.56
2023-03-17T05:44:20.476Z,-3.60
2023-03-17T05:46:47.642Z,-3.67
2023-03-17T05:49:14.278Z,-3.66
2023-03-17T05:51:41.954Z,-3.65
2023-03-17T05:54:08.840Z,-3.62
2023-03-17T05:56:35.449Z,-3.65
2023-03-17T05:59:02.380Z,-3.62
2023-03-17T06:01:29.637Z,-3.57
2023-03-17T06:03:56.180Z,-3.52
2023-03-17T06:06:23.453Z,-3.44
2023-03-17T06:08:50.044Z,-3.32
2023-03-17T06:11:18.236Z,-3.18
2023-03-17T06:13:44.700Z,-2.68
2023-03-17T06:16:11.362Z,-2.06
2023-03-17T06:18:37.911Z,-1.45
2023-03-17T06:21:05.280Z,-0.97
2023-03-17T06:23:31.844Z,-0.79
2023-03-17T06:25:58.345Z,-0.54
2023-03-17T06:28:24.869Z,-0.44
2023-03-17T06:30:51.460Z,-0.27
2023-03-17T06:33:19.245Z,-0.07
2023-03-17T06:35:46.082Z,0.12
2023-03-17T06:38:13.597Z,0.43
2023-03-17T06:40:40.395Z,0.56
2023-03-17T06:43:07.867Z,0.64
2023-03-17T06:45:34.823Z,0.86
2023-03-17T06:48:02.456Z,1.16
2023-03-17T06:50:29.129Z,1.37
2023-03-17T06:52:56.055Z,1.49
2023-03-17T06:55:22.629Z,1.65
2023-03-17T06:57:51.060Z,1.81
2023-03-17T07:00:18.214Z,1.82
2023-03-17T07:02:44.717Z,1.82
2023-03-17T07:05:12.740Z,1.82
2023-03-17T07:07:39.617Z,1.91
2023-03-17T07:10:07.069Z,1.93
2023-03-17T07:12:34.356Z,1.91
2023-03-17T07:15:01.432Z,1.91
2023-03-17T07:17:28.202Z,1.97
2023-03-17T07:19:54.743Z,1.95
2023-03-17T07:22:21.305Z,2.04
2023-03-17T07:24:49.288Z,2.15
2023-03-17T07:27:16.552Z,2.26
2023-03-17T07:29:43.170Z,2.28
2023-03-17T07:32:10.418Z,1.92
2023-03-17T07:34:37.532Z,1.90
2023-03-17T07:37:18.149Z,1.72
2023-03-17T07:39:44.840Z,1.67
2023-03-17T07:42:14.871Z,1.73
2023-03-17T07:44:41.775Z,1.89
2023-03-17T07:49:47.738Z,2.24
2023-03-17T07:52:14.793Z,2.29
2023-03-17T07:54:43.186Z,2.26
2023-03-17T07:57:09.853Z,2.38
2023-03-17T07:59:36.530Z,2.54
2023-03-17T08:03:48.313Z,2.76
2023-03-17T08:06:14.905Z,2.96
2023-03-17T08:08:41.849Z,3.06
2023-03-17T08:11:08.368Z,3.06
2023-03-17T08:13:35.098Z,3.07
2023-03-17T08:16:02.001Z,3.12
2023-03-17T08:18:28.631Z,3.14
2023-03-17T08:20:55.452Z,3.21
2023-03-17T08:23:22.568Z,3.41
2023-03-17T08:28:29.403Z,3.52
2023-03-17T08:31:05.663Z,3.71
2023-03-17T08:33:32.452Z,4.12
2023-03-17T08:35:59.166Z,4.37
2023-03-17T08:38:26.016Z,4.44
2023-03-17T08:40:52.566Z,4.66
2023-03-17T08:43:19.174Z,4.76
2023-03-17T08:45:45.780Z,5.00
2023-03-17T08:48:12.391Z,5.09
2023-03-17T08:50:39.047Z,5.17
2023-03-17T08:53:05.565Z,5.32
2023-03-17T08:55:32.056Z,5.54
2023-03-17T08:57:58.612Z,5.84
2023-03-17T09:00:25.086Z,5.96
2023-03-17T09:02:51.718Z,6.17
2023-03-17T09:05:18.486Z,6.09
2023-03-17T09:07:45.212Z,5.89
2023-03-17T09:10:13.746Z,6.03
2023-03-17T09:12:40.630Z,6.11
2023-03-17T09:15:07.845Z,6.24
2023-03-17T09:17:34.825Z,6.26
2023-03-17T09:22:40.956Z,6.54
2023-03-17T09:25:07.678Z,6.54
2023-03-17T09:27:34.186Z,6.73
2023-03-17T09:30:00.712Z,6.78
2023-03-17T09:32:27.457Z,6.94
2023-03-17T09:34:54.014Z,6.87
2023-03-17T09:37:20.530Z,7.00
2023-03-17T09:39:47.238Z,7.15
2023-03-17T09:42:33.467Z,7.01
2023-03-17T09:45:00.003Z,7.08
2023-03-17T09:47:42.938Z,7.24
2023-03-17T09:50:13.098Z,7.20
2023-03-17T09:52:39.757Z,7.51
2023-03-17T09:55:08.656Z,6.85
2023-03-17T09:57:36.423Z,7.07
2023-03-17T10:00:07.667Z,7.34
2023-03-17T10:02:37.514Z,7.36
2023-03-17T10:05:22.036Z,7.38
2023-03-17T10:07:57.733Z,7.41
2023-03-17T10:10:39.526Z,7.48
2023-03-17T10:13:14.839Z,7.62
2023-03-17T10:15:47.696Z,7.79
2023-03-17T10:18:15.425Z,7.88
2023-03-17T10:20:47.721Z,7.80
2023-03-17T10:23:17.254Z,7.79
2023-03-17T10:25:43.861Z,7.93
2023-03-17T10:28:29.938Z,8.14
2023-03-17T10:31:16.743Z,7.97
2023-03-17T10:34:50.863Z,8.37
2023-03-17T10:37:19.469Z,8.08
2023-03-17T10:39:51.239Z,8.34
2023-03-17T10:42:25.728Z,8.56
2023-03-17T10:44:57.002Z,8.73
2023-03-17T10:47:31.837Z,8.55
2023-03-17T10:50:00.287Z,8.64
2023-03-17T10:52:28.050Z,8.63
2023-03-17T10:54:54.749Z,8.50
2023-03-17T10:57:21.564Z,8.50
2023-03-17T10:59:53.404Z,8.62
2023-03-17T11:02:36.876Z,8.65
2023-03-17T11:05:04.969Z,8.72
2023-03-17T11:07:38.218Z,8.62
2023-03-17T11:10:14.822Z,8.87
2023-03-17T11:13:43.919Z,9.02
2023-03-17T11:16:18.672Z,8.71
2023-03-17T11:18:48.438Z,9.24
2023-03-17T11:22:05.530Z,8.96
2023-03-17T11:24:33.846Z,9.22
2023-03-17T11:27:23.670Z,9.30
2023-03-17T11:30:10.577Z,9.16
2023-03-17T11:32:37.792Z,9.16
2023-03-17T11:35:19.616Z,9.16
2023-03-17T11:37:46.466Z,9.15
2023-03-17T11:40:18.666Z,9.06
2023-03-17T11:43:04.156Z,8.76
2023-03-17T11:45:38.257Z,9.07
2023-03-17T11:48:10.745Z,9.16
2023-03-17T11:50:43.519Z,9.11
2023-03-17T11:53:16.749Z,9.19
2023-03-17T11:55:46.337Z,9.24
2023-03-17T11:58:33.748Z,9.23
2023-03-17T12:01:01.006Z,9.48
2023-03-17T12:03:34.372Z,9.41
2023-03-17T12:06:05.528Z,9.30
2023-03-17T12:11:18.227Z,9.50
2023-03-17T12:13:47.778Z,9.34
2023-03-17T12:16:17.566Z,9.10
2023-03-17T12:18:53.461Z,9.32
2023-03-17T12:21:25.711Z,9.25
2023-03-17T12:23:55.269Z,9.12
2023-03-17T12:26:28.431Z,8.90
2023-03-17T12:29:14.158Z,9.04
2023-03-17T12:32:13.209Z,8.97
2023-03-17T12:34:39.809Z,8.82
2023-03-17T12:37:07.767Z,8.94
2023-03-17T12:39:35.004Z,8.80
2023-03-17T12:42:18.574Z,8.81
2023-03-17T12:44:54.128Z,8.84
2023-03-17T12:47:23.378Z,8.82
2023-03-17T12:49:58.751Z,8.71
2023-03-17T12:52:44.290Z,8.69
2023-03-17T12:55:15.781Z,8.75
2023-03-17T12:57:46.609Z,8.74
2023-03-17T13:00:24.580Z,8.62
2023-03-17T13:03:06.207Z,8.62
2023-03-17T13:05:33.599Z,8.70
2023-03-17T13:08:02.436Z,8.74
2023-03-17T13:10:37.823Z,8.83
2023-03-17T13:13:06.937Z,8.95
2023-03-17T13:15:38.224Z,9.07
2023-03-17T13:20:18.312Z,8.83
2023-03-17T13:23:03.604Z,8.91
2023-03-17T13:25:33.541Z,8.88
2023-03-17T13:28:12.820Z,8.80
2023-03-17T13:30:39.461Z,8.83
2023-03-17T13:33:12.111Z,8.73
2023-03-17T13:35:47.854Z,8.74
2023-03-17T13:38:33.192Z,8.74
2023-03-17T13:41:08.994Z,8.67
2023-03-17T13:43:54.271Z,8.70
2023-03-17T13:46:32.606Z,8.71
2023-03-17T13:49:02.269Z,8.66
2023-03-17T13:51:33.742Z,8.67
2023-03-17T13:54:09.292Z,8.56
2023-03-17T13:56:42.003Z,8.58
2023-03-17T13:59:15.625Z,8.61
2023-03-17T14:01:48.186Z,8.68
2023-03-17T14:04:22.995Z,8.77
2023-03-17T14:08:27.599Z,8.75
2023-03-17T14:11:00.753Z,8.61
2023-03-17T14:13:48.712Z,8.52
2023-03-17T14:16:21.499Z,8.58
2023-03-17T14:18:50.494Z,8.57
2023-03-17T14:21:24.476Z,8.63
2023-03-17T14:23:58.094Z,8.61
2023-03-17T14:26:26.616Z,8.53
2023-03-17T14:28:53.559Z,8.59
2023-03-17T14:31:24.678Z,8.63
2023-03-17T14:33:53.074Z,8.66
2023-03-17T14:36:20.053Z,8.76
2023-03-17T14:38:48.159Z,8.74
2023-03-17T14:41:14.666Z,8.76
2023-03-17T14:43:42.715Z,8.77
2023-03-17T14:46:24.406Z,8.84
2023-03-17T14:48:52.558Z,8.89
2023-03-17T14:51:31.428Z,8.95
2023-03-17T14:54:00.173Z,9.03
2023-03-17T14:56:31.489Z,8.97
2023-03-17T14:59:04.954Z,8.92
2023-03-17T15:01:39.790Z,8.82
2023-03-17T15:04:16.265Z,8.86
2023-03-17T15:06:48.646Z,8.82
2023-03-17T15:10:51.378Z,8.77
2023-03-17T15:13:17.908Z,8.76
2023-03-17T15:15:44.787Z,8.72
2023-03-17T15:18:13.385Z,8.67
2023-03-17T15:20:42.390Z,8.84
2023-03-17T15:23:22.278Z,8.75
2023-03-17T15:25:51.427Z,8.66
2023-03-17T15:28:19.118Z,8.61
2023-03-17T15:30:50.474Z,8.54
2023-03-17T15:33:21.989Z,8.67
2023-03-17T15:35:49.434Z,8.55
2023-03-17T15:38:16.768Z,8.55
2023-03-17T15:40:43.328Z,8.43
2023-03-17T15:43:16.771Z,8.52
2023-03-17T15:45:44.852Z,8.50
2023-03-17T15:48:20.519Z,8.35
2023-03-17T15:50:48.241Z,8.21
2023-03-17T15:53:14.756Z,8.13
2023-03-17T15:55:41.334Z,8.11
2023-03-17T15:58:07.882Z,8.01
2023-03-17T16:00:34.832Z,7.93
2023-03-17T16:03:06.560Z,7.81
2023-03-17T16:05:34.543Z,7.74
2023-03-17T16:08:01.583Z,7.64
2023-03-17T16:10:29.688Z,7.54
2023-03-17T16:12:56.522Z,7.45
2023-03-17T16:15:27.941Z,7.39
2023-03-17T16:17:55.777Z,7.30
2023-03-17T16:20:24.291Z,7.22
2023-03-17T16:22:51.972Z,7.16
2023-03-17T16:25:21.561Z,7.13
2023-03-17T16:27:48.694Z,6.97
2023-03-17T16:30:16.651Z,6.86
2023-03-17T16:32:43.272Z,6.81
2023-03-17T16:35:30.248Z,6.75
2023-03-17T16:37:56.969Z,6.68
2023-03-17T16:40:28.606Z,6.61
2023-03-17T16:42:55.421Z,6.63
2023-03-17T16:45:27.580Z,6.52
2023-03-17T16:47:54.785Z,6.34
2023-03-17T16:50:22.736Z,6.24
2023-03-17T16:52:49.270Z,6.14
2023-03-17T16:55:16.928Z,6.06
2023-03-17T16:57:45.535Z,6.01
2023-03-17T17:00:17.277Z,5.83
2023-03-17T17:02:45.171Z,5.66
2023-03-17T17:05:16.263Z,5.54
2023-03-17T17:07:42.768Z,5.44
2023-03-17T17:10:11.099Z,5.39
2023-03-17T17:12:37.677Z,5.31
2023-03-17T17:15:26.424Z,5.18
2023-03-17T17:18:13.130Z,5.11
2023-03-17T17:20:40.509Z,4.98
2023-03-17T17:24:11.291Z,4.89
2023-03-17T17:26:37.971Z,4.80
2023-03-17T17:29:04.529Z,4.73
2023-03-17T17:31:31.162Z,4.66
2023-03-17T17:33:57.698Z,4.60
2023-03-17T17:36:42.780Z,4.49
2023-03-17T17:39:10.641Z,4.43
2023-03-17T17:41:37.180Z,4.35
2023-03-17T17:44:03.860Z,4.29
2023-03-17T17:46:30.425Z,4.20
2023-03-17T17:48:57.424Z,4.12
2023-03-17T17:51:24.090Z,4.03
2023-03-17T17:53:51.758Z,3.97
2023-03-17T17:56:18.291Z,3.92
2023-03-17T17:58:45.108Z,3.81
2023-03-17T18:01:14.494Z,3.71
2023-03-17T18:03:42.921Z,3.62
2023-03-17T18:06:09.619Z,3.61
2023-03-17T18:08:36.163Z,3.60
2023-03-17T18:11:02.719Z,3.53
2023-03-17T18:13:29.324Z,3.49
2023-03-17T18:15:55.891Z,3.43
2023-03-17T18:18:22.426Z,3.37
2023-03-17T18:20:49.172Z,3.31
2023-03-17T18:23:29.695Z,3.25
2023-03-17T18:26:00.476Z,3.17
2023-03-17T18:28:27.036Z,3.11
2023-03-17T18:30:54.096Z,3.06
2023-03-17T18:33:21.067Z,3.05
2023-03-17T18:35:48.860Z,2.98
2023-03-17T18:38:15.487Z,2.94
2023-03-17T18:40:42.414Z,2.89
2023-03-17T18:43:08.975Z,2.83
2023-03-17T18:45:35.727Z,2.75
2023-03-17T18:48:02.374Z,2.72
2023-03-17T18:50:28.913Z,2.67
2023-03-17T18:52:56.081Z,2.68
2023-03-17T18:55:22.788Z,2.65
2023-03-17T18:57:49.357Z,2.59
2023-03-17T19:02:55.119Z,2.45
2023-03-17T19:05:21.727Z,2.43
2023-03-17T19:07:48.279Z,2.36
2023-03-17T19:10:14.920Z,2.28
2023-03-17T19:12:42.544Z,2.28
2023-03-17T19:15:10.726Z,2.22
2023-03-17T19:17:37.280Z,2.17
2023-03-17T19:20:04.139Z,2.10
2023-03-17T19:22:30.690Z,2.11
2023-03-17T19:24:57.209Z,2.09
2023-03-17T19:27:24.055Z,2.02
2023-03-17T19:29:50.598Z,2.00
2023-03-17T19:32:17.318Z,1.99
2023-03-17T19:34:43.904Z,1.96
2023-03-17T19:37:10.526Z,1.94
2023-03-17T19:39:37.825Z,1.88
2023-03-17T19:42:04.436Z,1.85
2023-03-17T19:44:30.985Z,1.83
2023-03-17T19:46:57.539Z,1.82
2023-03-17T19:49:24.110Z,1.79
2023-03-17T19:51:50.620Z,1.77
2023-03-17T19:54:18.802Z,1.75
2023-03-17T19:56:45.813Z,1.70
2023-03-17T19:59:12.470Z,1.69
2023-03-17T20:01:39.130Z,1.64
2023-03-17T20:04:07.142Z,1.61
2023-03-17T20:06:34.770Z,1.60
2023-03-17T20:09:03.995Z,1.57
2023-03-17T20:11:33.974Z,1.55
2023-03-17T20:14:01.294Z,1.51
2023-03-17T20:16:28.094Z,1.50
2023-03-17T20:18:54.646Z,1.54
2023-03-17T20:21:21.245Z,1.46
2023-03-17T20:23:47.811Z,1.41
2023-03-17T20:28:51.727Z,1.43
2023-03-17T20:31:18.707Z,1.34
2023-03-17T20:35:28.233Z,1.30
2023-03-17T20:37:57.214Z,1.30
2023-03-17T20:40:24.232Z,1.28
2023-03-17T20:42:50.869Z,1.27
2023-03-17T20:45:17.816Z,1.24
2023-03-17T20:47:44.520Z,1.21
2023-03-17T20:50:13.150Z,1.22
2023-03-17T20:52:41.099Z,1.19
2023-03-17T20:55:09.400Z,1.16
2023-03-17T20:57:36.297Z,1.14
2023-03-17T21:00:03.504Z,1.11
2023-03-17T21:02:30.124Z,1.02
2023-03-17T21:04:56.944Z,0.98
2023-03-17T21:07:23.510Z,0.94
2023-03-17T21:09:51.737Z,0.92
2023-03-17T21:13:59.859Z,0.84
2023-03-17T21:16:28.132Z,0.83
2023-03-17T21:18:54.974Z,0.77
2023-03-17T21:21:21.849Z,0.76
2023-03-17T21:23:48.440Z,0.72
2023-03-17T21:26:15.291Z,0.63
2023-03-17T21:28:42.498Z,0.61
2023-03-17T21:31:10.210Z,0.60
2023-03-17T21:33:36.824Z,0.56
2023-03-17T21:36:03.570Z,0.52
2023-03-17T21:38:31.116Z,0.48
2023-03-17T21:43:38.503Z,0.40
2023-03-17T21:46:05.521Z,0.37
2023-03-17T21:48:32.104Z,0.31
2023-03-17T21:50:58.583Z,0.24
2023-03-17T21:53:26.193Z,0.24
2023-03-17T21:55:52.972Z,0.24
2023-03-17T21:58:21.317Z,0.20
2023-03-17T22:00:48.944Z,0.13
2023-03-17T22:03:15.672Z,0.09
2023-03-17T22:05:42.385Z,0.04
2023-03-17T22:08:09.376Z,0.04
2023-03-17T22:10:35.897Z,0.04
2023-03-17T22:13:02.374Z,0.01
2023-03-17T22:18:09.666Z,-0.09
2023-03-17T22:20:36.396Z,-0.14
2023-03-17T22:23:03.442Z,-0.17
2023-03-17T22:25:29.969Z,-0.19
2023-03-17T22:27:57.117Z,-0.19
2023-03-17T22:30:23.748Z,-0.20
2023-03-17T22:32:51.134Z,-0.22
2023-03-17T22:35:19.656Z,-0.30
2023-03-17T22:37:46.538Z,-0.30
2023-03-17T22:40:13.214Z,-0.36
2023-03-17T22:42:39.755Z,-0.40
2023-03-17T22:45:06.518Z,-0.43
2023-03-17T22:47:33.081Z,-0.49
2023-03-17T22:49:59.625Z,-0.52
2023-03-17T22:52:26.219Z,-0.52
2023-03-17T22:54:52.709Z,-0.60
2023-03-17T22:57:19.229Z,-0.59
2023-03-17T22:59:45.805Z,-0.59
2023-03-17T23:02:12.318Z,-0.58
2023-03-17T23:04:38.847Z,-0.57
2023-03-17T23:07:05.611Z,-0.62
2023-03-17T23:09:32.832Z,-0.66
2023-03-17T23:12:00.591Z,-0.70
2023-03-17T23:14:27.255Z,-0.69
2023-03-17T23:16:53.849Z,-0.69
2023-03-17T23:19:20.495Z,-0.71
2023-03-17T23:21:47.392Z,-0.75
2023-03-17T23:24:13.906Z,-0.75
2023-03-17T23:26:40.452Z,-0.78
2023-03-17T23:29:08.494Z,-0.82
2023-03-17T23:34:14.386Z,-0.90
2023-03-17T23:36:40.936Z,-0.87
2023-03-17T23:39:08.100Z,-0.85
2023-03-17T23:41:34.668Z,-0.86
2023-03-17T23:44:01.167Z,-0.90
2023-03-17T23:46:28.494Z,-0.88
2023-03-17T23:48:55.026Z,-0.91
2023-03-17T23:51:22.424Z,-0.95
2023-03-17T23:53:50.588Z,-0.98
2023-03-17T23:56:17.502Z,-0.99
2023-03-17T23:58:44.077Z,-0.98
